Arrifana — CUQG2 — position and weather

sailwx.info

Track history (hours):
 
Tides and Currents Weather Stations Pressure Air Temp Water Temp Dewpoint Dewpoint Depression Visibility Wind Speed Wind Dir Waves Ship Positions

Arrifana

Last reported at 2017-Oct-31 14:25 UTC. Time now 2017-Dec-11 11:38 UTC.
Position N 37°08' W 008°32'.
Warning: this ship's position is 40 days out of date.

Length 22 m.

Type: Fishing. MMSI: 263407290.

Date/timePositionNaut miles runAvg speedWind from/ knotsBaromVisibWave heightAir tempDewpointWater temp
2017-Oct-31 14:25N 37°08' W 008°32'0 0.0
2017-Oct-31 14:00N 37°08' W 008°32'0 0.0
2017-Oct-30 11:20N 37°08' W 008°32'0 0.0
2017-Oct-30 10:58N 37°08' W 008°32'2 3.6
2017-Oct-30 10:30N 37°06' W 008°32'8 1.5
2017-Oct-30 05:12N 37°03' W 008°41'9 9.2
2017-Oct-30 04:15N 37°08' W 008°32'0 0.0
2017-Oct-28 10:53N 37°08' W 008°32'0 0.0
2017-Oct-28 10:29N 37°08' W 008°32'0 0.0
2017-Oct-28 10:00N 37°08' W 008°32'0 0.0
2017-Oct-27 14:23N 37°08' W 008°32'0 0.0
2017-Oct-27 13:49N 37°08' W 008°32'0 0.0
2017-Oct-27 13:29N 37°08' W 008°32'3 4.4
2017-Oct-27 12:45N 37°05' W 008°29'910.1
2017-Oct-27 11:54N 37°03' W 008°19'11 1.4
2017-Oct-27 04:00N 37°08' W 008°32'0 0.0
2017-Oct-27 03:30N 37°08' W 008°32'  
2017-Oct-24 08:55N 37°08' W 008°32'0 0.3
2017-Oct-24 08:30N 37°08' W 008°32'0 0.0
2017-Oct-24 03:14N 37°08' W 008°32'0 0.0
2017-Oct-24 03:00N 37°08' W 008°32'0 0.0
2017-Oct-24 02:30N 37°08' W 008°32'0 0.0
2017-Oct-24 02:00N 37°08' W 008°32'1 1.6
2017-Oct-24 01:29N 37°07' W 008°32'5 9.6
2017-Oct-24 01:00N 37°05' W 008°36'2 3.0
2017-Oct-24 00:30N 37°04' W 008°38'0 0.2
2017-Oct-24 00:00N 37°04' W 008°38'0 0.1
2017-Oct-23 23:30N 37°04' W 008°38'0 0.2
2017-Oct-23 23:00N 37°04' W 008°38'0 0.8
2017-Oct-23 22:30N 37°05' W 008°38'1 2.8
2017-Oct-23 22:00N 37°05' W 008°37'4 7.5
2017-Oct-23 21:30N 37°06' W 008°32'2 0.2
2017-Oct-23 08:34N 37°08' W 008°32'0 1.0
2017-Oct-23 08:30N 37°08' W 008°32'3 5.4
2017-Oct-23 07:58N 37°06' W 008°30'9 9.4
2017-Oct-23 07:02N 37°02' W 008°20'0 9.6
2017-Oct-23 07:00N 37°01' W 008°19'5 9.7
2017-Oct-23 06:28N 36°59' W 008°14'1 0.2
2017-Oct-22 23:00N 36°59' W 008°12'510.4
2017-Oct-22 22:30N 36°59' W 008°19'510.2
2017-Oct-22 21:59N 37°02' W 008°25'510.4
2017-Oct-22 21:30N 37°05' W 008°30'  
Track history (hours):
 
Tides and Currents Weather Stations Pressure Air Temp Water Temp Dewpoint Dewpoint Depression Visibility Wind Speed Wind Dir Waves Ship Positions

Arrifana

Last reported at 2017-Oct-31 14:25 UTC. Time now 2017-Dec-11 11:38 UTC.
Position N 37°08' W 008°32'.
Warning: this ship's position is 40 days out of date.

Length 22 m.

Type: Fishing. MMSI: 263407290.

Date/timePositionNaut miles runAvg speedWind from/ knotsBaromVisibWave heightAir tempDewpointWater temp
2017-Oct-31 14:25N 37°08' W 008°32'0 0.0
2017-Oct-31 14:00N 37°08' W 008°32'0 0.0
2017-Oct-30 11:20N 37°08' W 008°32'0 0.0
2017-Oct-30 10:58N 37°08' W 008°32'2 3.6
2017-Oct-30 10:30N 37°06' W 008°32'8 1.5
2017-Oct-30 05:12N 37°03' W 008°41'9 9.2
2017-Oct-30 04:15N 37°08' W 008°32'0 0.0
2017-Oct-28 10:53N 37°08' W 008°32'0 0.0
2017-Oct-28 10:29N 37°08' W 008°32'0 0.0
2017-Oct-28 10:00N 37°08' W 008°32'0 0.0
2017-Oct-27 14:23N 37°08' W 008°32'0 0.0
2017-Oct-27 13:49N 37°08' W 008°32'0 0.0
2017-Oct-27 13:29N 37°08' W 008°32'3 4.4
2017-Oct-27 12:45N 37°05' W 008°29'910.1
2017-Oct-27 11:54N 37°03' W 008°19'11 1.4
2017-Oct-27 04:00N 37°08' W 008°32'0 0.0
2017-Oct-27 03:30N 37°08' W 008°32'  
2017-Oct-24 08:55N 37°08' W 008°32'0 0.3
2017-Oct-24 08:30N 37°08' W 008°32'0 0.0
2017-Oct-24 03:14N 37°08' W 008°32'0 0.0
2017-Oct-24 03:00N 37°08' W 008°32'0 0.0
2017-Oct-24 02:30N 37°08' W 008°32'0 0.0
2017-Oct-24 02:00N 37°08' W 008°32'1 1.6
2017-Oct-24 01:29N 37°07' W 008°32'5 9.6
2017-Oct-24 01:00N 37°05' W 008°36'2 3.0
2017-Oct-24 00:30N 37°04' W 008°38'0 0.2
2017-Oct-24 00:00N 37°04' W 008°38'0 0.1
2017-Oct-23 23:30N 37°04' W 008°38'0 0.2
2017-Oct-23 23:00N 37°04' W 008°38'0 0.8
2017-Oct-23 22:30N 37°05' W 008°38'1 2.8
2017-Oct-23 22:00N 37°05' W 008°37'4 7.5
2017-Oct-23 21:30N 37°06' W 008°32'2 0.2
2017-Oct-23 08:34N 37°08' W 008°32'0 1.0
2017-Oct-23 08:30N 37°08' W 008°32'3 5.4
2017-Oct-23 07:58N 37°06' W 008°30'9 9.4
2017-Oct-23 07:02N 37°02' W 008°20'0 9.6
2017-Oct-23 07:00N 37°01' W 008°19'5 9.7
2017-Oct-23 06:28N 36°59' W 008°14'1 0.2
2017-Oct-22 23:00N 36°59' W 008°12'510.4
2017-Oct-22 22:30N 36°59' W 008°19'510.2
2017-Oct-22 21:59N 37°02' W 008°25'510.4
2017-Oct-22 21:30N 37°05' W 008°30'  

Dump ship's entire track history